sensor_id;sensor_type;location;lat;lon;timestamp;P1;durP1;ratioP1;P2;durP2;ratioP2
6499;SDS011;3283;52.330;9.772;2023-03-23T05:01:23;71.20;;;53.17;;
6499;SDS011;3283;52.330;9.772;2023-03-23T05:03:52;114.47;;;89.67;;
6499;SDS011;3283;52.330;9.772;2023-03-23T05:06:18;79.33;;;71.00;;
6499;SDS011;3283;52.330;9.772;2023-03-23T05:08:43;80.40;;;72.03;;
6499;SDS011;3283;52.330;9.772;2023-03-23T05:11:09;76.27;;;65.07;;
6499;SDS011;3283;52.330;9.772;2023-03-23T05:13:34;72.13;;;64.73;;
6499;SDS011;3283;52.330;9.772;2023-03-23T05:16:02;61.40;;;55.77;;
6499;SDS011;3283;52.330;9.772;2023-03-23T05:18:29;38.77;;;34.70;;
6499;SDS011;3283;52.330;9.772;2023-03-23T05:20:54;26.63;;;23.77;;
6499;SDS011;3283;52.330;9.772;2023-03-23T05:23:20;40.17;;;31.97;;
6499;SDS011;3283;52.330;9.772;2023-03-23T05:25:52;45.97;;;41.30;;
6499;SDS011;3283;52.330;9.772;2023-03-23T05:28:20;51.03;;;41.90;;
6499;SDS011;3283;52.330;9.772;2023-03-23T05:30:47;23.80;;;13.30;;
6499;SDS011;3283;52.330;9.772;2023-03-23T05:33:13;44.50;;;37.77;;
6499;SDS011;3283;52.330;9.772;2023-03-23T05:35:38;48.50;;;43.83;;
6499;SDS011;3283;52.330;9.772;2023-03-23T05:38:04;36.93;;;33.50;;
6499;SDS011;3283;52.330;9.772;2023-03-23T05:40:29;37.27;;;32.30;;
6499;SDS011;3283;52.330;9.772;2023-03-23T05:42:55;29.37;;;24.43;;
6499;SDS011;3283;52.330;9.772;2023-03-23T05:45:23;32.80;;;29.70;;
6499;SDS011;3283;52.330;9.772;2023-03-23T05:47:49;23.47;;;13.23;;
6499;SDS011;3283;52.330;9.772;2023-03-23T05:50:15;21.87;;;14.30;;
6499;SDS011;3283;52.330;9.772;2023-03-23T05:52:41;25.10;;;14.67;;
6499;SDS011;3283;52.330;9.772;2023-03-23T05:55:07;19.60;;;12.77;;
6499;SDS011;3283;52.330;9.772;2023-03-23T05:57:33;14.97;;;10.67;;
6499;SDS011;3283;52.330;9.772;2023-03-23T05:59:59;30.40;;;21.20;;
6499;SDS011;3283;52.330;9.772;2023-03-23T06:02:30;33.17;;;24.00;;
6499;SDS011;3283;52.330;9.772;2023-03-23T06:04:56;34.30;;;23.77;;
6499;SDS011;3283;52.330;9.772;2023-03-23T06:07:22;33.47;;;28.53;;
6499;SDS011;3283;52.330;9.772;2023-03-23T06:09:49;23.00;;;20.60;;
6499;SDS011;3283;52.330;9.772;2023-03-23T06:12:15;25.77;;;19.50;;
6499;SDS011;3283;52.330;9.772;2023-03-23T06:14:45;25.20;;;22.60;;
6499;SDS011;3283;52.330;9.772;2023-03-23T06:17:11;32.83;;;23.87;;
6499;SDS011;3283;52.330;9.772;2023-03-23T06:19:37;25.27;;;21.60;;
6499;SDS011;3283;52.330;9.772;2023-03-23T06:22:02;20.87;;;15.73;;
6499;SDS011;3283;52.330;9.772;2023-03-23T06:24:28;48.37;;;22.73;;
6499;SDS011;3283;52.330;9.772;2023-03-23T06:26:54;27.93;;;25.00;;
6499;SDS011;3283;52.330;9.772;2023-03-23T06:29:19;26.70;;;24.40;;
6499;SDS011;3283;52.330;9.772;2023-03-23T20:31:36;86.03;;;69.50;;
6499;SDS011;3283;52.330;9.772;2023-03-23T20:34:05;96.20;;;66.90;;
6499;SDS011;3283;52.330;9.772;2023-03-23T20:36:37;70.73;;;63.30;;
